KSBN/SBN METAR and TAF weather

Enter ICAO airport designator
Station Type Date Time Source
KSBN METAR 2019/08/25 05:54 UTC NOAA

KSBN 250554Z AUTO 10005KT 10SM CLR 15/11 A3022 RMK AO2 SLP233 T01500106 10217 20150 58004


Station Type Date Time Source
KSBN Decoded METAR 2019/08/25 05:54 UTC NOAA

Station name not available
Aug 25, 2019 - 01:54 AM EDT / 2019.08.25 0554 UTC
Wind: from the E (100 degrees) at 6 MPH (5 KT):0
Visibility: 10 mile(s):0
Sky conditions: clear
Temperature: 59.0 F (15.0 C)
Dew Point: 51.1 F (10.6 C)
Relative Humidity: 74%
Pressure (altimeter): 30.22 in. Hg (1023 hPa)
Pressure tendency: 0.01 inches (0.4 hPa) lower than three hours ago
ob: KSBN 250554Z AUTO 10005KT 10SM CLR 15/11 A3022 RMK AO2 SLP233 T01500106 10217 20150 58004
cycle: 6

Station Type Date Time Source
KSBN TAF 2019/08/25 06:21 UTC NOAA

TAF KSBN 250520Z 2506/2606 09005KT P6SM FEW250
FM251400 11010KT P6SM SCT050 BKN250
FM260000 12010KT P6SM OVC100

Example: see airport list